Terminal Aerodrome Forecast
Issued by NWS Pittsburgh, PA

Home | Current Version | Previous Version | Text Only | Print | Product List | Glossary On
Versions: 1 2 3 4 5 6 7 8 9 10 11 12 13 14 15 16 17 18 19 20 21 22 23 24 25 26 27 28 29 30 31 32 33 34 35 36 37 38
000
FTUS41 KPBZ 301607 AAF
TAFPIT
TAF AMD
KPIT 301607Z 3016/3118 10005KT 6SM -SHRA SCT025 BKN040
     FM301730 13004KT P6SM SCT035 BKN100
     FM302000 15003KT P6SM VCSH BKN050
     FM310100 00000KT P6SM BKN200
     FM311500 22004KT P6SM BKN060=

USA.gov is the U.S. government's official web portal to all federal, state and local government web resources and services.